createdAt,value
2018-07-06T00:02:00.999Z,744.40
2018-07-06T00:04:56.517Z,693.87
2018-07-06T00:07:49.816Z,689.17
2018-07-06T00:10:42.886Z,734.53
2018-07-06T00:13:35.520Z,712.03
2018-07-06T00:16:27.118Z,777.70
2018-07-06T00:19:20.558Z,843.83
2018-07-06T00:22:13.130Z,914.70
2018-07-06T00:25:04.666Z,895.10
2018-07-06T00:27:56.219Z,936.37
2018-07-06T00:30:47.580Z,807.37
2018-07-06T00:33:41.604Z,752.47
2018-07-06T00:36:34.269Z,815.93
2018-07-06T00:39:26.956Z,877.87
2018-07-06T00:42:30.259Z,683.57
2018-07-06T00:45:22.319Z,745.50
2018-07-06T00:48:13.124Z,684.47
2018-07-06T00:51:06.779Z,757.07
2018-07-06T00:53:59.124Z,754.23
2018-07-06T00:56:51.142Z,803.70
2018-07-06T00:59:42.300Z,766.70
2018-07-06T01:02:34.500Z,866.20
2018-07-06T01:05:26.025Z,938.10
2018-07-06T01:08:23.857Z,987.17
2018-07-06T01:11:16.199Z,782.90
2018-07-06T01:14:08.839Z,818.30
2018-07-06T01:17:00.782Z,883.87
2018-07-06T01:19:52.159Z,863.83
2018-07-06T01:22:42.917Z,885.70
2018-07-06T01:25:35.475Z,921.10
2018-07-06T01:28:26.779Z,968.50
2018-07-06T01:31:18.659Z,950.27
2018-07-06T01:34:12.016Z,979.37
2018-07-06T01:37:03.739Z,992.40
2018-07-06T01:39:56.021Z,999.90
2018-07-06T01:42:47.535Z,986.40
2018-07-06T01:45:38.359Z,974.87
2018-07-06T01:51:29.656Z,945.13
2018-07-06T01:54:21.639Z,993.90
2018-07-06T01:57:12.999Z,996.23
2018-07-06T02:00:05.622Z,996.07
2018-07-06T02:02:56.720Z,999.50
2018-07-06T02:05:48.159Z,999.90
2018-07-06T02:08:40.557Z,999.90
2018-07-06T02:11:32.835Z,999.90
2018-07-06T02:14:24.440Z,999.90
2018-07-06T02:17:18.638Z,999.90
2018-07-06T02:20:10.139Z,999.90
2018-07-06T02:23:10.359Z,999.90
2018-07-06T02:26:02.638Z,999.90
2018-07-06T02:28:56.380Z,999.90
2018-07-06T02:31:48.562Z,905.30
2018-07-06T02:34:40.799Z,956.00
2018-07-06T02:37:34.786Z,999.90
2018-07-06T02:40:26.280Z,997.37
2018-07-06T02:43:18.462Z,990.70
2018-07-06T02:46:10.497Z,999.90
2018-07-06T02:49:00.859Z,999.90
2018-07-06T02:51:52.820Z,957.30
2018-07-06T02:54:46.555Z,982.13
2018-07-06T02:57:39.300Z,989.53
2018-07-06T03:00:32.746Z,791.37
2018-07-06T03:03:23.921Z,908.10
2018-07-06T03:06:15.599Z,707.20
2018-07-06T03:09:08.378Z,757.00
2018-07-06T03:12:01.022Z,744.37
2018-07-06T03:14:53.085Z,859.70
2018-07-06T03:17:44.720Z,975.23
2018-07-06T03:20:37.816Z,999.90
2018-07-06T03:23:36.796Z,867.70
2018-07-06T03:26:29.724Z,995.40
2018-07-06T03:29:23.460Z,963.37
2018-07-06T03:32:16.918Z,810.37
2018-07-06T03:35:16.518Z,992.17
2018-07-06T03:38:09.045Z,784.87
2018-07-06T03:41:00.179Z,947.37
2018-07-06T03:43:52.514Z,947.70
2018-07-06T03:46:43.624Z,910.77
2018-07-06T03:49:41.659Z,921.03
2018-07-06T03:52:32.022Z,955.03
2018-07-06T03:55:25.367Z,910.03
2018-07-06T03:58:15.658Z,918.67
2018-07-06T04:01:08.780Z,773.10
2018-07-06T04:04:14.058Z,969.53
2018-07-06T04:07:07.098Z,870.80
2018-07-06T04:09:58.906Z,852.70
2018-07-06T04:12:51.539Z,757.67
2018-07-06T04:15:43.346Z,770.53
2018-07-06T04:18:38.346Z,760.43
2018-07-06T04:21:32.222Z,955.20
2018-07-06T04:24:26.321Z,852.57
2018-07-06T04:27:19.363Z,983.40
2018-07-06T04:30:11.438Z,913.60
2018-07-06T04:33:03.003Z,878.43
2018-07-06T04:35:53.763Z,827.63
2018-07-06T04:38:45.657Z,634.10
2018-07-06T04:41:36.582Z,819.00
2018-07-06T04:44:27.223Z,716.23
2018-07-06T04:47:21.039Z,731.03
2018-07-06T04:50:14.621Z,663.70
2018-07-06T04:53:19.160Z,750.90
2018-07-06T04:56:10.721Z,877.00
2018-07-06T04:59:04.563Z,876.73
2018-07-06T05:01:57.944Z,844.23
2018-07-06T05:04:54.580Z,672.33
2018-07-06T05:07:45.115Z,725.57
2018-07-06T05:10:36.901Z,762.63
2018-07-06T05:13:30.583Z,786.17
2018-07-06T05:16:21.559Z,715.57
2018-07-06T05:19:15.922Z,710.50
2018-07-06T05:22:09.199Z,735.93
2018-07-06T05:25:14.460Z,734.63
2018-07-06T05:28:14.899Z,677.03
2018-07-06T05:31:08.805Z,732.23
2018-07-06T05:34:06.398Z,901.10
2018-07-06T05:36:59.025Z,897.07
2018-07-06T05:39:52.606Z,689.77
2018-07-06T05:42:45.322Z,706.50
2018-07-06T05:45:37.698Z,948.97
2018-07-06T05:48:31.905Z,796.23
2018-07-06T05:51:29.262Z,844.97
2018-07-06T05:54:22.936Z,853.17
2018-07-06T05:57:15.661Z,756.43
2018-07-06T06:00:10.157Z,734.60
2018-07-06T06:03:10.757Z,705.20
2018-07-06T06:06:05.562Z,730.50
2018-07-06T06:08:39.904Z,773.93
2018-07-06T06:11:27.141Z,779.20
2018-07-06T06:14:07.240Z,651.33
2018-07-06T06:17:12.596Z,703.53
2018-07-06T06:19:52.085Z,801.77
2018-07-06T06:22:31.156Z,681.47
2018-07-06T06:25:13.395Z,754.13
2018-07-06T06:27:56.781Z,788.50
2018-07-06T06:30:39.545Z,666.67
2018-07-06T06:33:19.386Z,716.97
2018-07-06T06:39:04.741Z,761.60
2018-07-06T06:41:46.281Z,727.70
2018-07-06T06:44:25.499Z,744.90
2018-07-06T06:47:08.078Z,696.07
2018-07-06T06:49:55.679Z,780.67
2018-07-06T06:52:36.821Z,676.60
2018-07-06T06:55:16.938Z,807.83
2018-07-06T06:57:58.725Z,782.63
2018-07-06T07:00:52.379Z,750.03
2018-07-06T07:03:33.197Z,688.50
2018-07-06T07:06:12.980Z,649.53
2018-07-06T07:08:58.724Z,782.40
2018-07-06T07:11:41.088Z,757.50
2018-07-06T07:14:22.383Z,723.50
2018-07-06T07:17:05.081Z,739.30
2018-07-06T07:19:45.126Z,668.63
2018-07-06T07:22:33.506Z,719.13
2018-07-06T07:25:13.425Z,723.70
2018-07-06T07:27:52.697Z,727.10
2018-07-06T07:30:32.028Z,758.33
2018-07-06T07:33:12.283Z,856.00
2018-07-06T07:36:03.485Z,807.97
2018-07-06T07:38:46.711Z,684.27
2018-07-06T07:41:49.187Z,737.47
2018-07-06T07:44:44.281Z,695.53
2018-07-06T07:47:25.198Z,756.17
2018-07-06T07:50:07.280Z,731.50
2018-07-06T07:52:59.062Z,761.10
2018-07-06T07:55:39.180Z,749.13
2018-07-06T07:58:18.821Z,708.97
2018-07-06T08:01:05.994Z,760.03
2018-07-06T08:03:48.081Z,890.53
2018-07-06T08:06:38.723Z,791.07
2018-07-06T08:09:19.338Z,628.73
2018-07-06T08:12:06.180Z,846.53
2018-07-06T08:14:49.277Z,739.13
2018-07-06T08:17:38.400Z,625.50
2018-07-06T08:23:28.323Z,777.67
2018-07-06T08:26:15.541Z,748.23
2018-07-06T08:29:01.353Z,798.20
2018-07-06T08:31:48.360Z,904.63
2018-07-06T08:34:39.464Z,864.17
2018-07-06T08:37:43.664Z,716.93
2018-07-06T08:40:26.862Z,784.30
2018-07-06T08:43:10.999Z,780.00
2018-07-06T08:45:50.402Z,836.63
2018-07-06T08:48:36.098Z,788.60
2018-07-06T08:51:16.456Z,863.93
2018-07-06T08:54:03.084Z,723.93
2018-07-06T08:56:44.684Z,999.90
2018-07-06T08:59:29.082Z,577.77
2018-07-06T09:02:07.420Z,648.83
2018-07-06T09:04:53.443Z,924.30
2018-07-06T09:08:07.159Z,943.13
2018-07-06T09:10:53.059Z,999.90
2018-07-06T09:13:33.940Z,633.60
2018-07-06T09:16:34.364Z,997.70
2018-07-06T09:19:16.826Z,800.17
2018-07-06T09:21:57.538Z,694.73
2018-07-06T09:24:44.177Z,793.00
2018-07-06T09:27:25.322Z,811.03
2018-07-06T09:30:06.064Z,771.77
2018-07-06T09:32:46.486Z,933.13
2018-07-06T09:38:29.178Z,684.87
2018-07-06T09:41:34.379Z,770.47
2018-07-06T09:44:16.282Z,602.47
2018-07-06T09:46:58.096Z,817.10
2018-07-06T09:52:35.859Z,789.63
2018-07-06T09:55:22.200Z,857.00
2018-07-06T09:58:02.314Z,601.50
2018-07-06T10:01:02.917Z,906.57
2018-07-06T10:03:48.337Z,943.00
2018-07-06T10:06:29.230Z,729.63
2018-07-06T10:09:11.231Z,859.83
2018-07-06T10:11:51.643Z,606.43
2018-07-06T10:14:31.270Z,583.80
2018-07-06T10:17:14.636Z,827.30
2018-07-06T10:19:53.575Z,649.80
2018-07-06T10:22:58.273Z,885.73
2018-07-06T10:25:36.314Z,744.57
2018-07-06T10:28:42.156Z,987.37
2018-07-06T10:31:55.839Z,932.40
2018-07-06T10:34:54.523Z,999.90
2018-07-06T10:37:35.773Z,996.67
2018-07-06T10:40:18.537Z,999.90
2018-07-06T10:43:00.940Z,999.90
2018-07-06T10:45:41.291Z,999.90
2018-07-06T10:48:22.434Z,455.93
2018-07-06T10:51:07.614Z,782.13
2018-07-06T10:53:53.438Z,860.37
2018-07-06T10:56:34.673Z,433.53
2018-07-06T10:59:30.615Z,929.27
2018-07-06T11:02:28.036Z,979.90
2018-07-06T11:05:09.311Z,999.90
2018-07-06T11:07:55.114Z,999.90
2018-07-06T11:10:42.552Z,999.90
2018-07-06T11:16:12.972Z,187.00
2018-07-06T11:18:56.118Z,212.83
2018-07-06T11:21:38.817Z,336.87
2018-07-06T11:24:23.234Z,165.17
2018-07-06T11:27:11.717Z,424.60
2018-07-06T11:30:05.455Z,576.97
2018-07-06T11:32:44.752Z,999.90
2018-07-06T11:35:24.135Z,999.90
2018-07-06T11:38:07.463Z,617.20
2018-07-06T11:40:47.529Z,632.07
2018-07-06T11:43:32.252Z,591.93
2018-07-06T11:46:39.595Z,287.90
2018-07-06T11:49:17.413Z,494.13
2018-07-06T11:51:56.975Z,499.83
2018-07-06T11:54:43.851Z,426.70
2018-07-06T11:57:27.571Z,382.33
2018-07-06T12:00:09.969Z,405.97
2018-07-06T12:02:50.615Z,451.83
2018-07-06T12:05:31.094Z,510.70
2018-07-06T12:08:22.776Z,452.90
2018-07-06T12:11:13.961Z,542.23
2018-07-06T12:13:54.546Z,816.97
2018-07-06T12:16:43.969Z,999.90
2018-07-06T12:19:24.850Z,533.43
2018-07-06T12:22:06.176Z,164.63
2018-07-06T12:24:49.175Z,729.55
2018-07-06T12:27:34.988Z,998.42
2018-07-06T12:30:13.495Z,380.93
2018-07-06T12:32:56.772Z,545.15
2018-07-06T12:35:40.274Z,758.90
2018-07-06T12:38:23.156Z,713.60
2018-07-06T12:41:02.173Z,825.37
2018-07-06T12:43:50.892Z,658.97
2018-07-06T12:46:35.555Z,744.15
2018-07-06T12:49:14.831Z,858.67
2018-07-06T12:52:02.452Z,861.75
2018-07-06T12:54:52.394Z,683.07
2018-07-06T12:57:45.933Z,701.47
2018-07-06T13:00:38.992Z,60.25
2018-07-06T13:03:17.277Z,217.85
2018-07-06T13:12:01.135Z,50.75
2018-07-06T13:14:40.713Z,64.70
2018-07-06T13:17:25.449Z,49.58
2018-07-06T13:20:16.752Z,134.85
2018-07-06T13:22:58.413Z,302.50
2018-07-06T13:25:40.600Z,147.28
2018-07-06T13:28:26.673Z,294.60
2018-07-06T13:31:12.537Z,326.20
2018-07-06T13:33:59.394Z,318.55
2018-07-06T13:36:40.372Z,373.00
2018-07-06T13:39:32.049Z,401.20
2018-07-06T13:42:14.292Z,499.25
2018-07-06T13:44:55.974Z,432.38
2018-07-06T13:47:37.592Z,70.32
2018-07-06T13:50:24.799Z,201.88
2018-07-06T13:53:10.619Z,102.30
2018-07-06T13:58:40.774Z,113.45
2018-07-06T14:01:20.351Z,120.08
2018-07-06T14:04:03.577Z,113.25
2018-07-06T14:06:43.572Z,121.02
2018-07-06T14:09:27.233Z,110.92
2018-07-06T14:12:10.014Z,110.72
2018-07-06T14:20:46.196Z,121.62
2018-07-06T14:23:28.539Z,134.25
2018-07-06T14:26:07.834Z,93.65
2018-07-06T14:28:57.274Z,106.15
2018-07-06T14:31:43.270Z,108.67
2018-07-06T14:34:24.252Z,102.80
2018-07-06T14:37:05.951Z,105.67
2018-07-06T14:39:49.660Z,75.45
2018-07-06T14:42:28.363Z,78.10
2018-07-06T14:45:14.975Z,85.38
2018-07-06T14:47:54.191Z,106.10
2018-07-06T14:50:52.390Z,110.22
2018-07-06T14:53:33.253Z,86.82
2018-07-06T14:56:15.657Z,102.87
2018-07-06T14:58:54.815Z,76.75
2018-07-06T15:01:42.492Z,95.75
2018-07-06T15:04:23.751Z,96.50
2018-07-06T15:07:19.081Z,92.10
2018-07-06T15:10:00.018Z,106.20
2018-07-06T15:12:41.986Z,98.25
2018-07-06T15:15:29.230Z,113.92
2018-07-06T15:18:11.592Z,109.78
2018-07-06T15:20:54.354Z,118.70
2018-07-06T15:23:47.021Z,101.60
2018-07-06T15:26:25.677Z,56.60
2018-07-06T15:29:09.253Z,74.80
2018-07-06T15:31:51.249Z,81.87
2018-07-06T15:34:32.332Z,91.22
2018-07-06T15:37:13.317Z,100.15
2018-07-06T15:39:57.912Z,120.87
2018-07-06T15:42:59.213Z,86.20
2018-07-06T15:45:35.871Z,60.58
2018-07-06T15:48:15.435Z,78.78
2018-07-06T15:50:56.349Z,73.07
2018-07-06T15:53:36.674Z,65.32
2018-07-06T15:56:20.820Z,44.42
2018-07-06T15:59:06.156Z,41.48
2018-07-06T16:01:45.655Z,43.23
2018-07-06T16:04:39.277Z,45.80
2018-07-06T16:07:19.236Z,51.10
2018-07-06T16:10:02.998Z,78.87
2018-07-06T16:12:43.613Z,102.30
2018-07-06T16:15:22.012Z,139.88
2018-07-06T16:18:06.634Z,135.70
2018-07-06T16:20:53.907Z,132.15
2018-07-06T16:23:35.389Z,109.50
2018-07-06T16:26:14.279Z,95.65
2018-07-06T16:28:53.471Z,91.32
2018-07-06T16:31:32.131Z,112.65
2018-07-06T16:34:21.213Z,107.78
2018-07-06T16:37:02.398Z,115.62
2018-07-06T16:39:42.718Z,120.90
2018-07-06T16:42:24.315Z,95.45
2018-07-06T16:45:08.716Z,76.17
2018-07-06T16:47:50.594Z,67.45
2018-07-06T16:50:41.672Z,63.20
2018-07-06T16:53:23.433Z,62.50
2018-07-06T16:56:02.973Z,59.00
2018-07-06T16:58:45.112Z,55.17
2018-07-06T17:01:23.739Z,54.05
2018-07-06T17:04:08.257Z,53.15
2018-07-06T17:06:47.611Z,50.30
2018-07-06T17:09:31.233Z,50.45
2018-07-06T17:12:10.391Z,49.77
2018-07-06T17:14:51.552Z,48.70
2018-07-06T17:17:33.354Z,57.53
2018-07-06T17:20:17.335Z,69.05
2018-07-06T17:23:02.296Z,46.77
2018-07-06T17:25:42.196Z,57.67
2018-07-06T17:28:36.193Z,59.33
2018-07-06T17:31:15.772Z,48.28
2018-07-06T17:34:08.840Z,55.98
2018-07-06T17:36:56.036Z,38.40
2018-07-06T17:39:35.932Z,43.85
2018-07-06T17:42:15.156Z,57.43
2018-07-06T17:44:58.680Z,50.40
2018-07-06T17:47:45.535Z,64.05
2018-07-06T17:50:24.565Z,107.80
2018-07-06T17:53:07.131Z,78.67
2018-07-06T17:55:48.835Z,91.05
2018-07-06T17:58:32.401Z,77.90
2018-07-06T18:01:11.278Z,92.47
2018-07-06T18:03:49.333Z,151.73
2018-07-06T18:06:33.398Z,212.43
2018-07-06T18:09:11.855Z,213.33
2018-07-06T18:11:52.216Z,373.00
2018-07-06T18:15:02.313Z,410.20
2018-07-06T18:17:44.430Z,343.07
2018-07-06T18:20:26.391Z,455.40
2018-07-06T18:23:09.382Z,463.70
2018-07-06T18:25:50.375Z,436.63
2018-07-06T18:28:30.910Z,463.13
2018-07-06T18:31:14.857Z,462.80
2018-07-06T18:33:59.194Z,436.00
2018-07-06T18:36:37.434Z,479.53
2018-07-06T18:39:15.593Z,435.80
2018-07-06T18:41:53.153Z,424.20
2018-07-06T18:44:31.657Z,402.47
2018-07-06T18:47:14.451Z,396.33
2018-07-06T18:49:54.773Z,393.13
2018-07-06T18:52:44.859Z,391.03
2018-07-06T18:55:22.477Z,417.27
2018-07-06T18:58:10.749Z,372.77
2018-07-06T19:00:54.190Z,237.37
2018-07-06T19:03:42.031Z,431.40
2018-07-06T19:06:25.031Z,293.67
2018-07-06T22:35:40.915Z,999.90
2018-07-06T22:38:22.797Z,999.90
2018-07-06T22:41:05.322Z,987.53
